Time;durP1;ratioP1;P1;durP2;ratioP2;P2;SDS_P1;SDS_P2;PMS_P1;PMS_P2;Temp;Humidity;BMP_temperature;BMP_pressure;BME280_temperature;BME280_humidity;BME280_pressure;Samples;Min_cycle;Max_cycle;Signal;HPM_P1;HPM_P2
2022/10/06 00:00:00;;;;;;;13.93;2.22;;;14.20;99.90;;;;;;4988902;28;38598;-80
2022/10/06 00:02:27;;;;;;;14.85;2.13;;;14.20;99.90;;;;;;4977992;28;37423;-80
2022/10/06 00:04:54;;;;;;;20.63;2.80;;;14.20;99.90;;;;;;4987882;28;37475;-80
2022/10/06 00:07:21;;;;;;;18.88;2.67;;;14.20;99.90;;;;;;4984698;28;35929;-80
2022/10/06 00:09:57;;;;;;;11.40;2.13;;;14.20;99.90;;;;;;4992767;28;39211;-80
2022/10/06 00:12:24;;;;;;;13.75;2.45;;;14.20;99.90;;;;;;4992163;28;38950;-80
2022/10/06 00:14:50;;;;;;;12.55;2.05;;;14.10;99.90;;;;;;4994862;28;37706;-81
2022/10/06 00:17:20;;;;;;;17.92;2.45;;;14.10;99.90;;;;;;4998150;28;37403;-80
2022/10/06 00:19:47;;;;;;;15.20;2.60;;;14.10;99.90;;;;;;4989390;28;38317;-80
2022/10/06 00:22:24;;;;;;;13.30;2.47;;;14.10;99.90;;;;;;4986394;28;38828;-80
2022/10/06 00:25:23;;;;;;;15.50;2.33;;;14.10;99.90;;;;;;5001697;28;38203;-80
2022/10/06 00:27:51;;;;;;;14.27;2.50;;;14.10;99.90;;;;;;4989557;28;48955;-80
2022/10/06 00:30:26;;;;;;;17.50;3.47;;;14.10;99.90;;;;;;5001448;28;39392;-79
2022/10/06 00:32:57;;;;;;;14.15;2.30;;;14.10;99.90;;;;;;4997791;28;38932;-80
2022/10/06 00:35:25;;;;;;;16.83;2.60;;;14.10;99.90;;;;;;4981532;28;35686;-79
2022/10/06 00:37:51;;;;;;;17.45;2.92;;;14.20;99.90;;;;;;4995089;28;36235;-80
2022/10/06 00:40:18;;;;;;;15.05;3.05;;;14.10;99.90;;;;;;4977500;28;40895;-80
2022/10/06 00:42:58;;;;;;;17.35;2.08;;;14.10;99.90;;;;;;4999792;28;38823;-80
2022/10/06 00:45:34;;;;;;;14.13;2.78;;;14.10;99.90;;;;;;4998915;28;38637;-79
2022/10/06 00:48:11;;;;;;;14.88;2.00;;;14.10;99.90;;;;;;4999382;28;37414;-79
2022/10/06 00:50:38;;;;;;;15.57;2.30;;;14.00;99.90;;;;;;4979925;28;47007;-80
2022/10/06 00:53:05;;;;;;;13.90;2.13;;;14.00;99.90;;;;;;4982898;28;38927;-79
2022/10/06 00:55:33;;;;;;;18.80;2.55;;;14.00;99.90;;;;;;4984622;28;37949;-78
2022/10/06 00:58:00;;;;;;;10.15;2.45;;;14.00;99.90;;;;;;4999858;28;37709;-78
2022/10/06 01:03:13;;;;;;;8.48;2.03;;;14.00;99.90;;;;;;5308428;23;20055;-77
2022/10/06 01:05:42;;;;;;;17.67;2.50;;;13.90;99.90;;;;;;4958339;28;47121;-77
2022/10/06 01:08:09;;;;;;;10.48;1.88;;;13.90;99.90;;;;;;4954493;28;37447;-77
2022/10/06 01:10:35;;;;;;;10.88;1.80;;;14.00;99.90;;;;;;4972304;28;38042;-76
2022/10/06 01:13:01;;;;;;;15.50;2.08;;;13.90;99.90;;;;;;4987183;28;38204;-77
2022/10/06 01:15:27;;;;;;;8.13;1.35;;;13.90;99.90;;;;;;4984845;28;37245;-76
2022/10/06 01:18:03;;;;;;;8.30;1.60;;;13.90;99.90;;;;;;4985453;28;37132;-78
2022/10/06 01:20:29;;;;;;;19.83;2.45;;;13.90;99.90;;;;;;4973463;28;44953;-78
2022/10/06 01:23:05;;;;;;;15.13;2.28;;;13.90;99.90;;;;;;4984350;28;39634;-77
2022/10/06 01:25:35;;;;;;;12.32;2.08;;;13.90;99.90;;;;;;4987077;28;48303;-77
2022/10/06 01:28:04;;;;;;;9.25;1.92;;;13.90;99.90;;;;;;4988448;28;36748;-78
2022/10/06 01:30:35;;;;;;;17.27;1.92;;;13.90;99.90;;;;;;4985715;28;49237;-76
2022/10/06 01:33:01;;;;;;;14.38;2.45;;;13.80;99.90;;;;;;4989004;28;39146;-77
2022/10/06 01:35:28;;;;;;;10.85;2.05;;;13.80;99.90;;;;;;4986860;28;38533;-76
2022/10/06 01:37:57;;;;;;;14.02;2.20;;;13.80;99.90;;;;;;4972994;28;39582;-77
2022/10/06 01:40:25;;;;;;;14.00;2.22;;;13.80;99.90;;;;;;4974307;28;38520;-78
2022/10/06 01:42:52;;;;;;;18.58;2.53;;;13.80;99.90;;;;;;4988360;28;39018;-77
2022/10/06 01:45:20;;;;;;;12.60;2.35;;;13.80;99.90;;;;;;4989922;28;38151;-77
2022/10/06 01:47:47;;;;;;;22.42;2.78;;;13.70;99.90;;;;;;4993467;28;37907;-77
2022/10/06 01:50:13;;;;;;;16.42;1.77;;;13.60;99.90;;;;;;4992410;28;39363;-78
2022/10/06 01:52:40;;;;;;;11.98;2.67;;;13.50;99.90;;;;;;4988811;28;38852;-77
2022/10/06 01:55:06;;;;;;;14.60;1.88;;;13.50;99.90;;;;;;4977853;28;38862;-77
2022/10/06 01:57:38;;;;;;;14.77;2.15;;;13.50;99.90;;;;;;4971501;28;38746;-77
2022/10/06 02:00:05;;;;;;;12.18;2.20;;;13.50;99.90;;;;;;4989071;28;39842;-77
2022/10/06 02:02:32;;;;;;;8.88;1.55;;;13.40;99.90;;;;;;4973657;28;38135;-77
2022/10/06 02:05:01;;;;;;;11.38;2.00;;;13.40;99.90;;;;;;4993757;28;37950;-77
2022/10/06 02:07:27;;;;;;;13.13;2.65;;;13.30;99.90;;;;;;4972635;28;38831;-77
2022/10/06 02:09:53;;;;;;;13.57;2.33;;;13.20;99.90;;;;;;4988571;28;39254;-77
2022/10/06 02:12:20;;;;;;;19.65;2.60;;;13.20;99.90;;;;;;4989183;28;38502;-77
2022/10/06 02:14:46;;;;;;;13.43;1.70;;;13.30;99.90;;;;;;4970811;28;38433;-77
2022/10/06 02:17:12;;;;;;;14.05;1.98;;;13.30;99.90;;;;;;4986343;28;39091;-77
2022/10/06 02:19:38;;;;;;;14.90;2.78;;;13.30;99.90;;;;;;4989088;28;39943;-76
2022/10/06 02:22:04;;;;;;;31.48;3.70;;;13.30;99.90;;;;;;4981481;28;38963;-78
2022/10/06 02:24:30;;;;;;;11.02;2.15;;;13.30;99.90;;;;;;4985461;28;38287;-77
2022/10/06 02:26:56;;;;;;;19.13;2.65;;;13.40;99.90;;;;;;4974627;28;38641;-77
2022/10/06 02:29:23;;;;;;;12.63;2.00;;;13.40;99.90;;;;;;4989906;28;39898;-78
2022/10/06 02:31:49;;;;;;;13.70;2.20;;;13.50;99.90;;;;;;4970771;28;38891;-77
2022/10/06 02:34:15;;;;;;;11.93;2.58;;;13.50;99.90;;;;;;4971770;28;37041;-77
2022/10/06 02:36:41;;;;;;;15.30;2.20;;;13.50;99.90;;;;;;4970262;28;37699;-77
2022/10/06 02:39:08;;;;;;;14.68;2.30;;;13.60;99.90;;;;;;4986274;28;39156;-77
2022/10/06 02:41:34;;;;;;;15.05;2.20;;;13.60;99.90;;;;;;4979561;28;39189;-77
2022/10/06 02:44:00;;;;;;;17.55;2.00;;;13.60;99.90;;;;;;4967871;28;38458;-78
2022/10/06 02:46:26;;;;;;;12.77;2.20;;;13.60;99.90;;;;;;4979807;28;38057;-77
2022/10/06 02:48:53;;;;;;;15.52;2.40;;;13.60;99.90;;;;;;4983257;28;39467;-77
2022/10/06 02:51:20;;;;;;;11.90;2.42;;;13.60;99.90;;;;;;4978835;28;38006;-78
2022/10/06 02:53:48;;;;;;;11.65;2.10;;;13.50;99.90;;;;;;4968321;28;36869;-77
2022/10/06 02:56:19;;;;;;;18.58;1.92;;;13.50;99.90;;;;;;4993066;28;38359;-78
2022/10/06 02:58:48;;;;;;;11.95;1.90;;;13.50;99.90;;;;;;4977774;28;37665;-78
2022/10/06 03:01:16;;;;;;;14.95;3.03;;;13.40;99.90;;;;;;4989868;28;38925;-78
2022/10/06 03:03:42;;;;;;;12.55;2.38;;;13.40;99.90;;;;;;5009320;28;38598;-77
2022/10/06 03:06:23;;;;;;;11.07;2.10;;;13.30;99.90;;;;;;5006781;28;38112;-77
2022/10/06 03:08:53;;;;;;;15.40;2.22;;;13.30;99.90;;;;;;5010469;28;39043;-77
2022/10/06 03:11:22;;;;;;;14.57;1.60;;;13.30;99.90;;;;;;4989741;28;37668;-77
2022/10/06 03:13:50;;;;;;;12.02;2.55;;;13.40;99.90;;;;;;4994404;28;38823;-77
2022/10/06 03:16:20;;;;;;;11.43;2.67;;;13.50;99.90;;;;;;5009130;28;36651;-78
2022/10/06 03:18:50;;;;;;;9.02;1.55;;;13.40;99.90;;;;;;5012081;28;40052;-78
2022/10/06 03:21:17;;;;;;;10.40;1.58;;;13.40;99.90;;;;;;4990565;28;38966;-78
2022/10/06 03:23:48;;;;;;;12.02;1.58;;;13.40;99.90;;;;;;5001175;28;37160;-77
2022/10/06 03:26:17;;;;;;;14.07;1.85;;;13.40;99.90;;;;;;5004846;28;37293;-77
2022/10/06 03:28:44;;;;;;;12.35;1.83;;;13.40;99.90;;;;;;5010655;28;38290;-78
2022/10/06 03:31:11;;;;;;;15.25;2.38;;;13.40;99.90;;;;;;4991476;28;36817;-78
2022/10/06 03:33:37;;;;;;;15.35;2.33;;;13.30;99.90;;;;;;4992205;28;38057;-77
2022/10/06 03:36:08;;;;;;;13.05;2.00;;;13.40;99.90;;;;;;4988062;28;37924;-77
2022/10/06 03:38:35;;;;;;;14.05;2.42;;;13.30;99.90;;;;;;5009009;28;46831;-76
2022/10/06 03:41:10;;;;;;;14.55;2.28;;;13.20;99.90;;;;;;5004746;28;38280;-77
2022/10/06 03:43:38;;;;;;;13.63;2.85;;;13.30;99.90;;;;;;4993389;28;46766;-77
2022/10/06 03:46:06;;;;;;;13.57;2.05;;;13.20;99.90;;;;;;5003484;28;36735;-79
2022/10/06 03:48:34;;;;;;;14.85;2.70;;;13.20;99.90;;;;;;5013955;28;40028;-78
2022/10/06 03:51:05;;;;;;;11.93;2.40;;;13.20;99.90;;;;;;5004264;28;38737;-78
2022/10/06 03:53:33;;;;;;;14.52;2.22;;;13.20;99.90;;;;;;5009234;28;49113;-77
2022/10/06 03:56:10;;;;;;;12.45;2.17;;;13.10;99.90;;;;;;4995967;28;36458;-78
2022/10/06 03:58:39;;;;;;;14.57;2.53;;;13.10;99.90;;;;;;4990323;28;45876;-78
2022/10/06 04:01:09;;;;;;;16.08;2.20;;;13.20;99.90;;;;;;5004635;28;37920;-79
2022/10/06 04:03:35;;;;;;;17.20;2.97;;;13.20;99.90;;;;;;5000290;28;39706;-78
2022/10/06 04:06:04;;;;;;;14.65;2.05;;;13.10;99.90;;;;;;4988936;28;39382;-78
2022/10/06 04:08:33;;;;;;;14.60;2.17;;;13.10;99.90;;;;;;5015294;28;48384;-77
2022/10/06 04:11:17;;;;;;;12.10;1.55;;;13.10;99.90;;;;;;4991640;28;38494;-77
2022/10/06 04:13:44;;;;;;;13.32;2.65;;;13.10;99.90;;;;;;5006847;28;48386;-77
2022/10/06 04:16:18;;;;;;;12.38;2.05;;;13.00;99.90;;;;;;4994840;28;37762;-77
2022/10/06 04:18:47;;;;;;;17.40;2.15;;;13.00;99.90;;;;;;5017793;28;38884;-77
2022/10/06 04:21:14;;;;;;;13.18;2.50;;;12.90;99.90;;;;;;4996078;28;39429;-77
2022/10/06 04:23:41;;;;;;;15.25;2.10;;;12.80;99.90;;;;;;4995053;28;39660;-78
2022/10/06 04:26:14;;;;;;;19.20;2.42;;;12.80;99.90;;;;;;4999021;28;38676;-78
2022/10/06 04:28:42;;;;;;;12.88;2.05;;;12.70;99.90;;;;;;5015058;28;40084;-77
2022/10/06 04:31:27;;;;;;;11.40;2.05;;;12.70;99.90;;;;;;4993485;28;40157;-77
2022/10/06 04:33:56;;;;;;;21.10;2.67;;;12.70;99.90;;;;;;5004560;28;39168;-78
2022/10/06 04:36:24;;;;;;;14.40;2.55;;;12.80;99.90;;;;;;5005264;28;37699;-77
2022/10/06 04:38:57;;;;;;;14.07;1.70;;;12.70;99.90;;;;;;4990658;28;40616;-77
2022/10/06 04:41:26;;;;;;;12.05;2.38;;;12.70;99.90;;;;;;4997101;28;38227;-78
2022/10/06 04:43:52;;;;;;;15.77;2.30;;;12.70;99.90;;;;;;5012851;28;38363;-79
2022/10/06 04:46:20;;;;;;;12.70;2.35;;;12.70;99.90;;;;;;4998703;28;37362;-78
2022/10/06 04:48:48;;;;;;;11.15;1.65;;;12.60;99.90;;;;;;5011025;28;38960;-78
2022/10/06 04:51:16;;;;;;;15.98;2.80;;;12.60;99.90;;;;;;4996712;28;37232;-78
2022/10/06 04:53:43;;;;;;;15.38;2.17;;;12.50;99.90;;;;;;5010079;28;37875;-77
2022/10/06 04:56:14;;;;;;;12.27;2.13;;;12.40;99.90;;;;;;5009494;28;37502;-78
2022/10/06 04:58:43;;;;;;;15.40;2.50;;;12.40;99.90;;;;;;5010212;28;39098;-78
2022/10/06 05:01:21;;;;;;;13.35;2.00;;;12.30;99.90;;;;;;5008198;28;37843;-79
2022/10/06 05:03:49;;;;;;;12.85;2.00;;;12.20;99.90;;;;;;5007154;28;39418;-79
2022/10/06 05:06:27;;;;;;;17.35;2.58;;;12.20;99.90;;;;;;4988905;28;38308;-79
2022/10/06 05:08:59;;;;;;;17.48;2.85;;;12.10;99.90;;;;;;5011477;28;38291;-78
2022/10/06 05:11:26;;;;;;;13.95;2.03;;;12.10;99.90;;;;;;5007452;28;39424;-77
2022/10/06 05:13:54;;;;;;;14.35;2.28;;;12.10;99.90;;;;;;4989394;28;38885;-77
2022/10/06 05:16:21;;;;;;;13.60;1.80;;;12.10;99.90;;;;;;4988020;28;38289;-77
2022/10/06 05:18:48;;;;;;;10.88;1.90;;;12.00;99.90;;;;;;4988486;28;40714;-77
2022/10/06 05:21:16;;;;;;;11.98;2.08;;;12.00;99.90;;;;;;4993515;28;38886;-77
2022/10/06 05:23:43;;;;;;;10.00;1.60;;;12.00;99.90;;;;;;5005767;28;36906;-78
2022/10/06 05:26:11;;;;;;;14.18;2.55;;;12.00;99.90;;;;;;5008798;28;37164;-78
2022/10/06 05:28:38;;;;;;;12.77;2.45;;;12.00;99.90;;;;;;4989110;28;37388;-78
2022/10/06 05:31:14;;;;;;;10.25;1.77;;;11.90;99.90;;;;;;4991308;28;38837;-78
2022/10/06 05:33:40;;;;;;;17.30;2.60;;;11.90;99.90;;;;;;4989293;28;45770;-79
2022/10/06 05:36:13;;;;;;;8.55;2.03;;;11.90;99.90;;;;;;5002344;28;35974;-78
2022/10/06 05:38:42;;;;;;;9.60;1.67;;;11.90;99.90;;;;;;4988984;28;39519;-78
2022/10/06 05:41:11;;;;;;;13.32;1.63;;;11.80;99.90;;;;;;4999519;28;39091;-79
2022/10/06 05:43:38;;;;;;;9.82;1.70;;;11.80;99.90;;;;;;5015271;28;38732;-78
2022/10/06 05:46:07;;;;;;;15.53;1.97;;;11.80;99.90;;;;;;5007276;28;39001;-79
2022/10/06 05:48:33;;;;;;;15.38;2.13;;;11.80;99.90;;;;;;5018470;28;48752;-79
2022/10/06 05:51:05;;;;;;;15.80;1.85;;;11.70;99.90;;;;;;4999756;28;37565;-79
2022/10/06 05:53:34;;;;;;;15.88;2.22;;;11.70;99.90;;;;;;5021427;28;46650;-79
2022/10/06 05:56:05;;;;;;;13.95;2.22;;;11.80;99.90;;;;;;5005316;28;36236;-79
2022/10/06 05:58:33;;;;;;;14.13;2.10;;;11.80;99.90;;;;;;4974397;28;46985;-78
2022/10/06 06:01:14;;;;;;;11.02;2.13;;;11.80;99.90;;;;;;5021695;28;38549;-78
2022/10/06 06:03:42;;;;;;;16.85;2.47;;;11.80;99.90;;;;;;5016420;28;47336;-78
2022/10/06 06:06:34;;;;;;;13.32;2.28;;;11.90;99.90;;;;;;5036714;28;38448;-80
2022/10/06 06:09:14;;;;;;;14.20;1.83;;;11.90;99.90;;;;;;5026963;28;38235;-79
2022/10/06 06:11:46;;;;;;;14.05;2.10;;;11.80;99.90;;;;;;5003175;28;47210;-79
2022/10/06 06:14:14;;;;;;;12.13;1.87;;;11.80;99.90;;;;;;5004964;28;36681;-79
2022/10/06 06:16:42;;;;;;;12.95;2.88;;;11.90;99.90;;;;;;4991960;28;37180;-79
2022/10/06 06:19:10;;;;;;;13.52;2.13;;;11.80;99.90;;;;;;4998206;28;40752;-79
2022/10/06 06:21:37;;;;;;;16.05;2.47;;;11.80;99.90;;;;;;4993202;28;38358;-78
2022/10/06 06:24:04;;;;;;;10.55;2.28;;;11.80;99.90;;;;;;4997550;28;37103;-78
2022/10/06 06:26:32;;;;;;;10.70;1.88;;;11.80;99.90;;;;;;5007669;28;37938;-78
2022/10/06 06:29:03;;;;;;;9.35;1.85;;;11.70;99.90;;;;;;5009705;28;39587;-78
2022/10/06 06:31:31;;;;;;;16.20;2.10;;;11.70;99.90;;;;;;4992179;28;38659;-78
2022/10/06 06:33:59;;;;;;;14.35;2.53;;;11.70;99.90;;;;;;5006486;28;37978;-77
2022/10/06 06:36:34;;;;;;;12.35;2.00;;;11.70;99.90;;;;;;4991234;28;35904;-79
2022/10/06 06:39:03;;;;;;;14.75;1.85;;;11.70;99.90;;;;;;5020888;28;39718;-78
2022/10/06 06:41:32;;;;;;;14.35;1.95;;;11.70;99.90;;;;;;5005901;28;48301;-78
2022/10/06 06:43:59;;;;;;;17.20;1.97;;;11.70;99.90;;;;;;4997076;28;36934;-78
2022/10/06 06:46:30;;;;;;;10.63;1.50;;;11.70;99.90;;;;;;5012493;28;37095;-78
2022/10/06 06:49:03;;;;;;;16.45;2.13;;;11.70;99.90;;;;;;5007942;28;39503;-77
2022/10/06 06:51:33;;;;;;;17.60;2.22;;;11.70;99.90;;;;;;5007731;28;49125;-78
2022/10/06 06:54:01;;;;;;;12.13;1.77;;;11.80;99.90;;;;;;5008829;28;39087;-78
2022/10/06 06:56:28;;;;;;;13.57;1.88;;;11.80;99.90;;;;;;4985996;28;36223;-78
2022/10/06 06:58:54;;;;;;;14.38;2.17;;;11.80;99.90;;;;;;4988299;28;39541;-79
2022/10/06 07:01:22;;;;;;;9.40;2.05;;;11.80;99.90;;;;;;5001003;28;38677;-79
2022/10/06 07:03:53;;;;;;;9.82;1.70;;;11.90;99.90;;;;;;5005082;28;35802;-78
2022/10/06 07:06:20;;;;;;;12.70;2.78;;;11.90;99.90;;;;;;5001752;28;37331;-77
2022/10/06 07:08:47;;;;;;;13.57;2.20;;;12.00;99.90;;;;;;5005231;28;39284;-78
2022/10/06 07:11:18;;;;;;;19.73;2.40;;;12.10;99.90;;;;;;5009574;28;38292;-77
2022/10/06 07:13:46;;;;;;;8.52;2.15;;;12.20;99.90;;;;;;5016029;28;38742;-77
2022/10/06 07:25:06;;;;;;;;;;;12.50;99.90;;;;;;5011496;28;49630;-77
2022/10/06 07:27:41;;;;;;;11.57;1.60;;;12.60;99.90;;;;;;5008352;28;49286;-77
2022/10/06 07:30:17;;;;;;;10.13;1.58;;;12.60;99.90;;;;;;4993029;28;39177;-76
2022/10/06 07:32:48;;;;;;;11.68;1.75;;;12.60;99.90;;;;;;4989871;28;37385;-78
2022/10/06 07:35:15;;;;;;;15.73;2.10;;;12.70;99.90;;;;;;5011607;28;39444;-78
2022/10/06 07:37:41;;;;;;;8.63;1.55;;;12.70;99.90;;;;;;4995127;28;36152;-77
2022/10/06 07:40:08;;;;;;;11.98;1.90;;;12.80;99.90;;;;;;5008516;28;39443;-77
2022/10/06 07:42:46;;;;;;;14.00;1.75;;;12.80;99.90;;;;;;4995882;28;38957;-77
2022/10/06 07:45:44;;;;;;;12.57;1.75;;;12.90;99.90;;;;;;5012553;28;38662;-77
2022/10/06 07:48:13;;;;;;;12.00;2.00;;;13.00;99.90;;;;;;5014543;28;37909;-77
2022/10/06 07:50:41;;;;;;;13.82;1.60;;;13.00;99.90;;;;;;4991409;28;38379;-77
2022/10/06 07:53:10;;;;;;;13.18;1.50;;;13.10;99.90;;;;;;4994598;28;37729;-77
2022/10/06 07:55:40;;;;;;;12.10;1.98;;;13.10;99.90;;;;;;4996993;28;40090;-77
2022/10/06 07:58:10;;;;;;;9.70;1.77;;;13.20;99.90;;;;;;5012872;28;37827;-76
2022/10/06 08:00:36;;;;;;;14.23;1.85;;;13.20;99.90;;;;;;4996341;28;40441;-78
2022/10/06 08:03:02;;;;;;;14.35;1.95;;;13.30;99.90;;;;;;4998939;28;38032;-77
2022/10/06 08:05:29;;;;;;;11.82;1.75;;;13.30;99.90;;;;;;4996932;28;46959;-76
2022/10/06 08:07:55;;;;;;;10.88;1.40;;;13.50;99.90;;;;;;5013203;28;36960;-78
2022/10/06 08:10:21;;;;;;;16.02;1.98;;;13.50;99.90;;;;;;5018822;28;39299;-78
2022/10/06 08:12:48;;;;;;;12.77;1.58;;;13.60;99.90;;;;;;4999471;28;37151;-79
2022/10/06 08:15:14;;;;;;;17.10;2.10;;;13.60;99.90;;;;;;4998162;28;37426;-79
2022/10/06 08:17:40;;;;;;;10.30;1.67;;;13.70;99.90;;;;;;5015835;28;38438;-77
2022/10/06 08:20:09;;;;;;;11.75;1.60;;;13.70;99.90;;;;;;5003067;28;38964;-78
2022/10/06 08:22:37;;;;;;;8.75;1.60;;;13.70;99.90;;;;;;5016965;28;37893;-78
2022/10/06 08:25:04;;;;;;;9.30;1.95;;;13.70;99.90;;;;;;5000084;28;38447;-77
2022/10/06 08:27:30;;;;;;;11.63;1.98;;;13.70;99.90;;;;;;5015901;28;47241;-77
2022/10/06 08:29:56;;;;;;;16.33;2.38;;;13.80;99.90;;;;;;5015389;28;37544;-78
2022/10/06 08:32:23;;;;;;;9.30;1.80;;;13.80;99.90;;;;;;5005330;28;39871;-79
2022/10/06 08:34:49;;;;;;;12.10;2.05;;;13.90;99.90;;;;;;5022234;28;38562;-79
2022/10/06 08:37:21;;;;;;;11.48;2.47;;;14.00;99.90;;;;;;5005168;28;37125;-78
2022/10/06 08:39:47;;;;;;;11.05;1.73;;;14.10;99.90;;;;;;5004626;28;38440;-78
2022/10/06 08:42:22;;;;;;;13.90;2.45;;;14.20;99.90;;;;;;5020165;28;37385;-78
2022/10/06 08:44:55;;;;;;;14.55;1.73;;;14.30;99.90;;;;;;5000086;28;37092;-79
2022/10/06 08:47:24;;;;;;;10.77;1.75;;;14.40;99.90;;;;;;5016005;28;37471;-79
2022/10/06 08:49:53;;;;;;;11.52;1.83;;;14.60;99.90;;;;;;5016898;28;38901;-80
2022/10/06 08:52:46;;;;;;;10.20;1.55;;;14.60;99.90;;;;;;5010611;28;38297;-78
2022/10/06 08:55:47;;;;;;;10.65;1.60;;;14.60;99.90;;;;;;5010110;28;38979;-79
2022/10/06 08:58:27;;;;;;;10.40;1.90;;;14.60;99.90;;;;;;5005677;28;34092;-78
2022/10/06 09:00:59;;;;;;;12.40;1.90;;;14.60;99.90;;;;;;4991683;28;37442;-76
2022/10/06 09:03:28;;;;;;;7.17;1.27;;;14.70;99.90;;;;;;4987779;28;37090;-79
2022/10/06 09:06:33;;;;;;;12.27;1.90;;;14.90;99.90;;;;;;4986408;28;38604;-82
2022/10/06 09:09:33;;;;;;;17.10;2.85;;;15.20;99.90;;;;;;5005113;28;47534;-81
2022/10/06 09:12:09;;;;;;;10.70;2.47;;;15.40;99.90;;;;;;4960878;28;46880;-83
2022/10/06 09:14:41;;;;;;;9.45;1.75;;;15.50;99.90;;;;;;5001086;28;47214;-81
2022/10/06 09:17:16;;;;;;;9.40;1.25;;;15.50;99.90;;;;;;4989580;28;37864;-81
2022/10/06 09:19:57;;;;;;;9.90;1.75;;;15.40;99.90;;;;;;4987557;28;37813;-81
2022/10/06 09:22:23;;;;;;;8.25;1.40;;;15.30;99.90;;;;;;4989387;28;37839;-80
2022/10/06 09:24:57;;;;;;;6.10;0.98;;;15.30;99.90;;;;;;4990185;28;34956;-81
2022/10/06 09:27:33;;;;;;;5.60;1.35;;;15.40;99.90;;;;;;5010063;28;38532;-82
2022/10/06 09:30:00;;;;;;;11.15;1.55;;;15.50;99.90;;;;;;5009171;28;37208;-82
2022/10/06 09:32:29;;;;;;;9.88;1.58;;;15.60;99.90;;;;;;4989281;28;37618;-82
2022/10/06 09:35:01;;;;;;;6.47;1.38;;;15.60;99.90;;;;;;4989610;28;37902;-82
2022/10/06 09:37:27;;;;;;;7.97;1.67;;;15.70;99.90;;;;;;5008575;28;37962;-80
2022/10/06 09:39:54;;;;;;;10.13;1.63;;;15.60;99.90;;;;;;5010695;28;37197;-81
2022/10/06 09:42:22;;;;;;;5.35;1.35;;;15.60;99.90;;;;;;5005848;28;39752;-81
2022/10/06 09:45:05;;;;;;;7.88;1.20;;;15.60;99.90;;;;;;4990247;28;39106;-82
2022/10/06 09:47:45;;;;;;;6.10;1.30;;;15.70;99.90;;;;;;4988121;28;47013;-84
2022/10/06 09:50:22;;;;;;;8.07;1.63;;;15.90;99.90;;;;;;4987033;28;36259;-80
2022/10/06 09:52:48;;;;;;;9.85;1.20;;;16.10;99.90;;;;;;4989810;28;37821;-85
2022/10/06 09:55:17;;;;;;;8.77;1.63;;;16.20;99.90;;;;;;4988210;28;38347;-82
2022/10/06 09:57:49;;;;;;;8.15;1.40;;;16.30;99.90;;;;;;4991808;28;36975;-81
2022/10/06 10:00:40;;;;;;;5.22;1.33;;;16.10;99.90;;;;;;5009398;28;37350;-83
2022/10/06 10:03:12;;;;;;;6.38;1.33;;;16.00;99.90;;;;;;4983539;28;37710;-80
2022/10/06 10:05:46;;;;;;;9.32;1.63;;;16.10;99.90;;;;;;4988774;28;38715;-83
2022/10/06 10:08:12;;;;;;;3.85;1.10;;;16.20;99.90;;;;;;4988621;28;37002;-81
2022/10/06 10:10:40;;;;;;;9.77;1.45;;;16.30;99.90;;;;;;5006783;28;37142;-79
2022/10/06 10:13:25;;;;;;;10.95;1.63;;;16.40;99.90;;;;;;4987708;28;38227;-79
2022/10/06 10:16:00;;;;;;;11.23;1.75;;;16.40;99.90;;;;;;4989250;28;37515;-81
2022/10/06 10:18:31;;;;;;;9.32;1.67;;;16.30;99.90;;;;;;4985732;28;37931;-81
2022/10/06 10:20:59;;;;;;;10.02;1.58;;;16.30;99.90;;;;;;4988861;28;37404;-84
2022/10/06 10:23:35;;;;;;;10.23;1.52;;;16.50;99.90;;;;;;4989553;28;37777;-82
2022/10/06 10:26:12;;;;;;;6.40;1.08;;;16.60;99.90;;;;;;4988790;28;37540;-81
2022/10/06 10:28:53;;;;;;;5.70;1.10;;;16.80;99.90;;;;;;5008061;28;48712;-83
2022/10/06 10:31:46;;;;;;;7.30;1.20;;;16.70;99.90;;;;;;5000067;28;37972;-80
2022/10/06 10:34:32;;;;;;;9.25;1.40;;;16.70;99.90;;;;;;5007113;28;39417;-81
2022/10/06 10:37:05;;;;;;;7.90;1.48;;;16.80;99.90;;;;;;5005396;28;39766;-83
2022/10/06 10:39:38;;;;;;;7.30;1.10;;;16.80;99.90;;;;;;5006296;28;48746;-81
2022/10/06 10:42:14;;;;;;;7.85;1.20;;;16.80;99.90;;;;;;4999582;28;36909;-80
2022/10/06 10:45:06;;;;;;;6.95;1.00;;;16.80;99.90;;;;;;5008555;28;38260;-81
2022/10/06 10:47:36;;;;;;;7.63;1.35;;;16.90;99.90;;;;;;5002167;28;46822;-81
2022/10/06 10:50:23;;;;;;;5.10;0.90;;;17.00;99.90;;;;;;4986221;28;36953;-81
2022/10/06 10:52:53;;;;;;;8.35;1.73;;;17.00;99.90;;;;;;4985278;28;47252;-81
2022/10/06 10:55:43;;;;;;;11.10;1.75;;;16.90;99.90;;;;;;4985653;28;37536;-82
2022/10/06 10:58:31;;;;;;;8.23;1.35;;;16.70;99.90;;;;;;4986655;28;39385;-82
2022/10/06 11:01:04;;;;;;;6.95;1.80;;;16.70;99.90;;;;;;5002279;28;37534;-79
2022/10/06 11:03:31;;;;;;;12.95;1.73;;;17.10;99.90;;;;;;5008781;28;37435;-80
2022/10/06 11:06:13;;;;;;;12.52;1.67;;;17.40;99.90;;;;;;5007150;28;39547;-82
2022/10/06 11:08:56;;;;;;;11.10;1.52;;;17.70;99.90;;;;;;5006799;28;48825;-92
2022/10/06 11:11:49;;;;;;;9.38;1.33;;;17.90;99.90;;;;;;4988473;28;37907;-81
2022/10/06 11:14:47;;;;;;;11.18;1.80;;;18.10;99.90;;;;;;4983321;28;36351;-78
2022/10/06 11:17:43;;;;;;;12.57;2.20;;;18.00;99.90;;;;;;5006154;28;37358;-81
2022/10/06 11:20:22;;;;;;;9.23;1.60;;;17.70;99.90;;;;;;4991341;28;37376;-79
2022/10/06 11:23:16;;;;;;;10.55;1.33;;;17.60;99.90;;;;;;5006413;28;38229;-82
2022/10/06 11:26:14;;;;;;;5.53;1.27;;;17.60;99.90;;;;;;5000639;28;48647;-81
2022/10/06 11:29:03;;;;;;;9.50;2.05;;;17.30;99.90;;;;;;4964227;28;46919;-81
2022/10/06 11:31:43;;;;;;;10.68;1.75;;;17.40;99.90;;;;;;4981353;28;40430;-82
2022/10/06 11:34:09;;;;;;;6.68;1.30;;;17.50;99.90;;;;;;4988477;28;37712;-78
2022/10/06 11:36:45;;;;;;;9.00;1.55;;;17.70;99.90;;;;;;5007133;28;37344;-80
2022/10/06 11:39:28;;;;;;;5.85;1.25;;;17.70;99.90;;;;;;4989829;28;37950;-80
2022/10/06 11:42:09;;;;;;;6.45;1.63;;;17.70;99.90;;;;;;4999725;28;38440;-83
2022/10/06 11:44:52;;;;;;;9.05;1.85;;;17.70;99.90;;;;;;5001002;28;47243;-81
2022/10/06 11:47:40;;;;;;;11.15;2.03;;;17.60;99.90;;;;;;5007140;28;37240;-81
2022/10/06 11:50:39;;;;;;;6.60;1.40;;;17.50;99.90;;;;;;4983588;28;37630;-79
2022/10/06 11:53:21;;;;;;;4.30;1.10;;;17.30;99.90;;;;;;4986632;28;37356;-78
2022/10/06 11:56:16;;;;;;;6.45;1.67;;;17.30;99.90;;;;;;5002940;28;38040;-80
2022/10/06 11:58:54;;;;;;;7.35;1.30;;;17.30;99.90;;;;;;4998122;28;47292;-82
2022/10/06 12:01:29;;;;;;;8.52;1.40;;;17.30;99.90;;;;;;5007454;28;38517;-82
2022/10/06 12:04:16;;;;;;;8.63;1.17;;;17.20;99.90;;;;;;5006903;28;37932;-82
2022/10/06 12:09:31;;;;;;;5.70;1.27;;;17.40;99.90;;;;;;5012049;28;37856;-82
2022/10/06 12:12:00;;;;;;;5.07;1.33;;;17.40;99.90;;;;;;5007851;28;38916;-81
2022/10/06 12:14:59;;;;;;;8.15;1.15;;;17.50;99.90;;;;;;4986429;28;38424;-81
2022/10/06 12:17:39;;;;;;;5.07;0.90;;;17.50;99.90;;;;;;5007283;28;38081;-81
2022/10/06 12:20:20;;;;;;;8.32;1.17;;;17.60;99.90;;;;;;4991993;28;37993;-81
2022/10/06 12:23:14;;;;;;;4.22;1.00;;;17.60;99.90;;;;;;5008530;28;38549;-83
2022/10/06 12:25:46;;;;;;;6.85;1.02;;;17.50;99.90;;;;;;5003628;28;47071;-82
2022/10/06 12:28:43;;;;;;;6.63;1.20;;;17.70;99.90;;;;;;5007581;28;38468;-82
2022/10/06 12:31:21;;;;;;;7.78;1.40;;;17.70;99.90;;;;;;5002833;28;37919;-81
2022/10/06 12:33:47;;;;;;;7.13;0.90;;;17.80;99.90;;;;;;5008155;28;40737;-82
2022/10/06 12:36:30;;;;;;;3.80;1.00;;;17.90;99.90;;;;;;4991239;28;37349;-82
2022/10/06 12:39:22;;;;;;;6.85;1.35;;;17.80;99.90;;;;;;4982646;28;38859;-80
2022/10/06 12:41:59;;;;;;;7.00;1.17;;;17.80;99.90;;;;;;5002107;28;49106;-81
2022/10/06 12:44:50;;;;;;;6.07;1.17;;;17.80;99.90;;;;;;4988647;28;39896;-84
2022/10/06 12:47:37;;;;;;;8.48;1.10;;;17.80;99.90;;;;;;4997076;28;38561;-82
2022/10/06 12:50:24;;;;;;;7.95;1.55;;;17.70;99.90;;;;;;5005425;28;37705;-81
2022/10/06 12:53:12;;;;;;;11.27;1.35;;;17.70;99.90;;;;;;4986978;28;47129;-84
2022/10/06 12:55:47;;;;;;;7.55;0.93;;;17.70;99.90;;;;;;5009182;28;48418;-83
2022/10/06 12:58:41;;;;;;;8.82;1.80;;;17.60;99.90;;;;;;4988848;28;38527;-83
2022/10/06 13:01:11;;;;;;;9.00;1.73;;;17.60;99.90;;;;;;4999174;28;38250;-84
2022/10/06 13:03:37;;;;;;;5.53;1.08;;;17.70;99.90;;;;;;4983573;28;38467;-85
2022/10/06 13:06:07;;;;;;;7.43;1.40;;;17.70;99.90;;;;;;4985432;28;39890;-82
2022/10/06 13:08:35;;;;;;;6.38;1.40;;;17.80;99.90;;;;;;4997754;28;47206;-80
2022/10/06 13:11:24;;;;;;;7.25;1.05;;;17.90;99.90;;;;;;4997481;28;38086;-78
2022/10/06 13:13:53;;;;;;;5.57;1.00;;;17.70;99.90;;;;;;4975060;28;47506;-81
2022/10/06 13:16:32;;;;;;;5.38;0.93;;;17.70;99.90;;;;;;4981887;28;39583;-80
2022/10/06 13:19:00;;;;;;;6.10;1.08;;;17.80;99.90;;;;;;5001609;28;38586;-81
2022/10/06 13:21:28;;;;;;;9.77;1.65;;;18.00;99.90;;;;;;4984676;28;39648;-79